Independence of the Seas — C6WW4 — position and weather

sailwx.info

Track history (hours):
 
Tides and Currents Weather Stations Pressure Air Temp Water Temp Dewpoint Dewpoint Depression Visibility Wind Speed Wind Dir Waves Ship Positions

Independence of the Seas

Last reported at 2014-Oct-22 15:29 UTC. Time now 2014-Oct-24 12:06 UTC.
Position N 39°33' W 012°11'.

Length 339 m; draft 8.8 m.

Type: Passenger vessel. MMSI: 309374000.

Date/timePositionNaut miles runAvg speedWind from/ knotsBaromVisibWave heightAir tempDewpointWater temp
2014-Oct-22 15:29N 39°33' W 012°11'5518.8
2014-Oct-22 12:33N 38°45' W 012°45'1918.6
2014-Oct-22 11:33N 38°29' W 012°56'40019.1
2014-Oct-21 14:33N 32°37' W 016°50'4 3.8
2014-Oct-21 13:31N 32°39' W 016°55'0 0.0
2014-Oct-21 12:31N 32°39' W 016°55'0 0.0
2014-Oct-21 11:31N 32°39' W 016°55'0 0.0
2014-Oct-21 10:31N 32°39' W 016°55'0 0.0
2014-Oct-21 09:31N 32°39' W 016°55'0 0.0
2014-Oct-21 08:31N 32°39' W 016°55'1 1.1
2014-Oct-21 07:34N 32°38' W 016°53'1515.3
2014-Oct-21 06:34N 32°23' W 016°50'1816.6
2014-Oct-21 05:30N 32°06' W 016°47'  
2014-Oct-15 18:00N 41°36' W 009°06'63313.3 260 / 201007.0 2.2 3.019.017.519.0
2014-Oct-13 18:24N 50°32' W 001°03'1012.2
2014-Oct-13 17:33N 50°43' W 000°59'1312.8
2014-Oct-13 16:31N 50°48' W 001°18'7 1.2
2014-Oct-13 10:30N 50°54' W 001°25'0 0.0
2014-Oct-13 08:18N 50°54' W 001°25'0 0.0
2014-Oct-13 04:18N 50°54' W 001°25'3 4.6
2014-Oct-13 03:34N 50°51' W 001°21'9 9.4
2014-Oct-13 02:34N 50°46' W 001°09'1110.8
2014-Oct-13 01:34N 50°37' W 000°59'  
Track history (hours):
 
Tides and Currents Weather Stations Pressure Air Temp Water Temp Dewpoint Dewpoint Depression Visibility Wind Speed Wind Dir Waves Ship Positions

Independence of the Seas

Last reported at 2014-Oct-22 15:29 UTC. Time now 2014-Oct-24 12:06 UTC.
Position N 39°33' W 012°11'.

Length 339 m; draft 8.8 m.

Type: Passenger vessel. MMSI: 309374000.

Date/timePositionNaut miles runAvg speedWind from/ knotsBaromVisibWave heightAir tempDewpointWater temp
2014-Oct-22 15:29N 39°33' W 012°11'5518.8
2014-Oct-22 12:33N 38°45' W 012°45'1918.6
2014-Oct-22 11:33N 38°29' W 012°56'40019.1
2014-Oct-21 14:33N 32°37' W 016°50'4 3.8
2014-Oct-21 13:31N 32°39' W 016°55'0 0.0
2014-Oct-21 12:31N 32°39' W 016°55'0 0.0
2014-Oct-21 11:31N 32°39' W 016°55'0 0.0
2014-Oct-21 10:31N 32°39' W 016°55'0 0.0
2014-Oct-21 09:31N 32°39' W 016°55'0 0.0
2014-Oct-21 08:31N 32°39' W 016°55'1 1.1
2014-Oct-21 07:34N 32°38' W 016°53'1515.3
2014-Oct-21 06:34N 32°23' W 016°50'1816.6
2014-Oct-21 05:30N 32°06' W 016°47'  
2014-Oct-15 18:00N 41°36' W 009°06'63313.3 260 / 201007.0 2.2 3.019.017.519.0
2014-Oct-13 18:24N 50°32' W 001°03'1012.2
2014-Oct-13 17:33N 50°43' W 000°59'1312.8
2014-Oct-13 16:31N 50°48' W 001°18'7 1.2
2014-Oct-13 10:30N 50°54' W 001°25'0 0.0
2014-Oct-13 08:18N 50°54' W 001°25'0 0.0
2014-Oct-13 04:18N 50°54' W 001°25'3 4.6
2014-Oct-13 03:34N 50°51' W 001°21'9 9.4
2014-Oct-13 02:34N 50°46' W 001°09'1110.8
2014-Oct-13 01:34N 50°37' W 000°59'  

Dump ship's entire track history